createdAt,value
2015-09-25T00:00:07.579Z,73940
2015-09-25T00:00:19.989Z,73946
2015-09-25T00:00:32.379Z,73945
2015-09-25T00:00:44.817Z,73946
2015-09-25T00:00:57.239Z,73946
2015-09-25T00:01:09.645Z,73944
2015-09-25T00:01:22.070Z,73946
2015-09-25T00:01:34.460Z,73945
2015-09-25T00:01:46.867Z,73944
2015-09-25T00:01:59.257Z,73948
2015-09-25T00:02:11.663Z,73947
2015-09-25T00:02:24.056Z,73947
2015-09-25T00:02:36.447Z,73948
2015-09-25T00:02:48.853Z,73944
2015-09-25T00:03:01.259Z,73944
2015-09-25T00:03:13.681Z,73946
2015-09-25T00:03:25.372Z,73942
2015-09-25T00:03:37.762Z,73946
2015-09-25T00:03:50.153Z,73944
2015-09-25T00:04:02.543Z,73950
2015-09-25T00:04:14.950Z,73945
2015-09-25T00:04:27.359Z,73949
2015-09-25T00:04:39.796Z,73942
2015-09-25T00:04:52.234Z,73936
2015-09-25T00:05:04.625Z,73944
2015-09-25T00:05:17.015Z,73943
2015-09-25T00:05:29.424Z,73946
2015-09-25T00:05:41.815Z,73947
2015-09-25T00:05:54.206Z,73942
2015-09-25T00:06:06.596Z,73937
2015-09-25T00:06:19.003Z,73946
2015-09-25T00:06:31.411Z,73943
2015-09-25T00:06:43.848Z,73943
2015-09-25T00:06:56.286Z,73942
2015-09-25T00:07:08.676Z,73945
2015-09-25T00:07:21.067Z,73943
2015-09-25T00:07:33.462Z,73945
2015-09-25T00:07:46.118Z,73946
2015-09-25T00:07:58.509Z,73946
2015-09-25T00:08:10.899Z,73947
2015-09-25T00:08:23.305Z,73944
2015-09-25T00:08:35.714Z,73942
2015-09-25T00:08:48.120Z,73942
2015-09-25T00:09:00.542Z,73942
2015-09-25T00:09:12.964Z,73948
2015-09-25T00:09:25.386Z,73946
2015-09-25T00:09:37.779Z,73943
2015-09-25T00:09:50.170Z,73949
2015-09-25T00:10:02.576Z,73947
2015-09-25T00:10:14.967Z,73953
2015-09-25T00:10:27.360Z,73945
2015-09-25T00:10:39.751Z,73941
2015-09-25T00:10:52.173Z,73945
2015-09-25T00:11:04.563Z,73943
2015-09-25T00:11:16.985Z,73946
2015-09-25T00:11:29.395Z,73944
2015-09-25T00:11:41.785Z,73944
2015-09-25T00:11:54.238Z,73943
2015-09-25T00:12:06.629Z,73942
2015-09-25T00:12:19.035Z,73946
2015-09-25T00:12:31.442Z,73943
2015-09-25T00:12:43.864Z,73947
2015-09-25T00:12:56.286Z,73944
2015-09-25T00:13:08.724Z,73943
2015-09-25T00:13:21.114Z,73945
2015-09-25T00:13:33.508Z,73945
2015-09-25T00:13:45.899Z,73946
2015-09-25T00:13:58.305Z,73944
2015-09-25T00:14:10.695Z,73940
2015-09-25T00:14:23.086Z,73942
2015-09-25T00:14:35.511Z,73951
2015-09-25T00:14:47.917Z,73939
2015-09-25T00:15:00.323Z,73949
2015-09-25T00:15:12.761Z,73946
2015-09-25T00:15:25.167Z,73941
2015-09-25T00:15:37.561Z,73941
2015-09-25T00:15:49.951Z,73949
2015-09-25T00:16:01.639Z,73945
2015-09-25T00:16:14.045Z,73942
2015-09-25T00:16:26.280Z,73940
2015-09-25T00:16:38.673Z,73941
2015-09-25T00:16:51.079Z,73939
2015-09-25T00:17:03.486Z,73944
2015-09-25T00:17:15.908Z,73944
2015-09-25T00:17:28.314Z,73936
2015-09-25T00:17:40.050Z,73944
2015-09-25T00:17:52.456Z,73940
2015-09-25T00:18:04.847Z,73941
2015-09-25T00:18:17.253Z,73942
2015-09-25T00:18:29.644Z,73940
2015-09-25T00:18:42.039Z,73939
2015-09-25T00:18:54.429Z,73942
2015-09-25T00:19:06.867Z,73938
2015-09-25T00:19:19.273Z,73943
2015-09-25T00:19:31.695Z,73943
2015-09-25T00:19:44.119Z,73937
2015-09-25T00:19:56.525Z,73939
2015-09-25T00:20:08.916Z,73948
2015-09-25T00:20:21.306Z,73936
2015-09-25T00:20:33.712Z,73938
2015-09-25T00:20:46.106Z,73946
2015-09-25T00:20:58.512Z,73944
2015-09-25T00:21:10.919Z,73947
2015-09-25T00:21:23.340Z,73941
2015-09-25T00:21:35.764Z,73940
2015-09-25T00:21:48.171Z,73946
2015-09-25T00:22:00.561Z,73938
2015-09-25T00:22:12.967Z,73945
2015-09-25T00:22:25.358Z,73943
2015-09-25T00:22:37.767Z,73941
2015-09-25T00:22:50.158Z,73945
2015-09-25T00:23:02.549Z,73939
2015-09-25T00:23:14.955Z,73939
2015-09-25T00:23:27.361Z,73939
2015-09-25T00:23:39.786Z,73943
2015-09-25T00:23:52.177Z,73945
2015-09-25T00:24:04.567Z,73945
2015-09-25T00:24:16.973Z,73940
2015-09-25T00:24:29.364Z,73945
2015-09-25T00:24:41.773Z,73941
2015-09-25T00:24:54.180Z,73945
2015-09-25T00:25:06.617Z,73938
2015-09-25T00:25:19.055Z,73945
2015-09-25T00:25:31.492Z,73945
2015-09-25T00:25:43.900Z,73944
2015-09-25T00:25:56.307Z,73944
2015-09-25T00:26:08.697Z,73950
2015-09-25T00:26:21.088Z,73940
2015-09-25T00:26:33.494Z,73943
2015-09-25T00:26:45.888Z,73944
2015-09-25T00:26:58.278Z,73942
2015-09-25T00:27:10.700Z,73945
2015-09-25T00:27:23.138Z,73942
2015-09-25T00:27:35.560Z,73941
2015-09-25T00:27:47.969Z,73935
2015-09-25T00:28:00.406Z,73941
2015-09-25T00:28:12.797Z,73942
2015-09-25T00:28:25.188Z,73938
2015-09-25T00:28:37.578Z,73946
2015-09-25T00:28:50.003Z,73935
2015-09-25T00:29:02.394Z,73935
2015-09-25T00:29:14.800Z,73938
2015-09-25T00:29:27.222Z,73940
2015-09-25T00:29:39.644Z,73937
2015-09-25T00:29:52.069Z,73936
2015-09-25T00:30:04.459Z,73942
2015-09-25T00:30:16.865Z,73942
2015-09-25T00:30:29.256Z,73941
2015-09-25T00:30:41.647Z,73938
2015-09-25T00:30:54.039Z,73937
2015-09-25T00:31:06.446Z,73936
2015-09-25T00:31:18.852Z,73937
2015-09-25T00:31:31.258Z,73937
2015-09-25T00:31:43.680Z,73940
2015-09-25T00:31:56.105Z,73940
2015-09-25T00:32:08.527Z,73937
2015-09-25T00:32:20.933Z,73939
2015-09-25T00:32:33.370Z,73942
2015-09-25T00:32:45.761Z,73938
2015-09-25T00:32:58.155Z,73937
2015-09-25T00:33:10.561Z,73937
2015-09-25T00:33:22.952Z,73941
2015-09-25T00:33:35.342Z,73939
2015-09-25T00:33:47.748Z,73937
2015-09-25T00:34:00.157Z,73937
2015-09-25T00:34:12.610Z,73936
2015-09-25T00:34:25.032Z,73932
2015-09-25T00:34:37.454Z,73939
2015-09-25T00:34:49.860Z,73936
2015-09-25T00:35:02.253Z,73935
2015-09-25T00:35:14.644Z,73937
2015-09-25T00:35:27.050Z,73933
2015-09-25T00:35:39.441Z,73936
2015-09-25T00:35:51.832Z,73934
2015-09-25T00:36:04.241Z,73937
2015-09-25T00:36:16.631Z,73935
2015-09-25T00:36:29.038Z,73933
2015-09-25T00:36:41.303Z,73939
2015-09-25T00:36:53.725Z,73928
2015-09-25T00:37:05.962Z,73938
2015-09-25T00:37:18.352Z,73934
2015-09-25T00:37:30.758Z,73938
2015-09-25T00:37:43.149Z,73939
2015-09-25T00:37:55.558Z,73938
2015-09-25T00:38:07.965Z,73938
2015-09-25T00:38:20.371Z,73938
2015-09-25T00:38:32.793Z,73937
2015-09-25T00:38:45.183Z,73928
2015-09-25T00:38:57.577Z,73938
2015-09-25T00:39:09.968Z,73933
2015-09-25T00:39:22.358Z,73936
2015-09-25T00:39:34.749Z,73930
2015-09-25T00:39:47.139Z,73937
2015-09-25T00:39:59.549Z,73935
2015-09-25T00:40:11.955Z,73934
2015-09-25T00:40:24.377Z,73942
2015-09-25T00:40:36.799Z,73933
2015-09-25T00:40:48.502Z,73931
2015-09-25T00:41:00.894Z,73936
2015-09-25T00:41:13.285Z,73936
2015-09-25T00:41:25.676Z,73934
2015-09-25T00:41:38.082Z,73929
2015-09-25T00:41:50.473Z,73941
2015-09-25T00:42:02.898Z,73928
2015-09-25T00:42:15.289Z,73940
2015-09-25T00:42:27.711Z,73931
2015-09-25T00:42:40.133Z,73929
2015-09-25T00:42:52.555Z,73929
2015-09-25T00:43:04.963Z,73929
2015-09-25T00:43:17.354Z,73937
2015-09-25T00:43:29.744Z,73930
2015-09-25T00:43:42.135Z,73929
2015-09-25T00:43:54.525Z,73934
2015-09-25T00:44:06.919Z,73928
2015-09-25T00:44:19.310Z,73934
2015-09-25T00:44:31.716Z,73926
2015-09-25T00:44:44.122Z,73929
2015-09-25T00:44:55.841Z,73935
2015-09-25T00:45:08.266Z,73929
2015-09-25T00:45:20.672Z,73930
2015-09-25T00:45:33.063Z,73931
2015-09-25T00:45:45.453Z,73934
2015-09-25T00:45:57.844Z,73937
2015-09-25T00:46:10.237Z,73925
2015-09-25T00:46:22.627Z,73937
2015-09-25T00:46:35.033Z,73926
2015-09-25T00:46:47.455Z,73928
2015-09-25T00:46:59.865Z,73932
2015-09-25T00:47:12.286Z,73930
2015-09-25T00:47:24.677Z,73938
2015-09-25T00:47:37.083Z,73928
2015-09-25T00:47:49.474Z,73937
2015-09-25T00:48:01.882Z,73929
2015-09-25T00:48:14.273Z,73928
2015-09-25T00:48:26.679Z,73934
2015-09-25T00:48:39.101Z,73929
2015-09-25T00:48:51.523Z,73939
2015-09-25T00:49:03.948Z,73927
2015-09-25T00:49:16.338Z,73938
2015-09-25T00:49:28.745Z,73930
2015-09-25T00:49:41.120Z,73931
2015-09-25T00:49:53.526Z,73935
2015-09-25T00:50:05.919Z,73925
2015-09-25T00:50:18.154Z,73938
2015-09-25T00:50:30.560Z,73930
2015-09-25T00:50:42.966Z,73928
2015-09-25T00:50:55.388Z,73944
2015-09-25T00:51:07.812Z,73929
2015-09-25T00:51:20.234Z,73939
2015-09-25T00:51:32.671Z,73937
2015-09-25T00:51:45.062Z,73940
2015-09-25T00:51:57.296Z,73930
2015-09-25T00:52:09.690Z,73936
2015-09-25T00:52:22.081Z,73935
2015-09-25T00:52:34.471Z,73937
2015-09-25T00:52:46.862Z,73936
2015-09-25T00:52:59.253Z,73941
2015-09-25T00:53:11.662Z,73943
2015-09-25T00:53:24.084Z,73935
2015-09-25T00:53:36.506Z,73937
2015-09-25T00:53:48.912Z,73940
2015-09-25T00:54:01.349Z,73938
2015-09-25T00:54:13.743Z,73941
2015-09-25T00:54:26.134Z,73937
2015-09-25T00:54:38.555Z,73947
2015-09-25T00:54:50.946Z,73936
2015-09-25T00:55:03.180Z,73946
2015-09-25T00:55:15.574Z,73938
2015-09-25T00:55:27.980Z,73936
2015-09-25T00:55:40.387Z,73943
2015-09-25T00:55:52.808Z,73935
2015-09-25T00:56:05.230Z,73937
2015-09-25T00:56:17.655Z,73937
2015-09-25T00:56:30.046Z,73942
2015-09-25T00:56:42.436Z,73940
2015-09-25T00:56:54.827Z,73935
2015-09-25T00:57:07.233Z,73936
2015-09-25T00:57:19.642Z,73934
2015-09-25T00:57:32.048Z,73934
2015-09-25T00:57:44.470Z,73934
2015-09-25T00:57:56.892Z,73938
2015-09-25T00:58:09.298Z,73939
2015-09-25T00:58:21.738Z,73943
2015-09-25T00:58:34.160Z,73937
2015-09-25T00:58:46.582Z,73935
2015-09-25T00:58:58.988Z,73937
2015-09-25T00:59:11.473Z,73939
2015-09-25T00:59:23.865Z,73938
2015-09-25T00:59:36.272Z,73934
2015-09-25T00:59:48.647Z,73936
2015-09-25T01:00:01.068Z,73936
2015-09-25T01:00:13.463Z,73934
2015-09-25T01:00:25.901Z,73929
2015-09-25T01:00:38.322Z,73940
2015-09-25T01:00:50.744Z,73943
2015-09-25T01:01:03.135Z,73941
2015-09-25T01:01:15.528Z,73943
2015-09-25T01:01:27.934Z,73934
2015-09-25T01:01:40.324Z,73937
2015-09-25T01:01:52.715Z,73935
2015-09-25T01:02:05.121Z,73943
2015-09-25T01:02:17.515Z,73937
2015-09-25T01:02:29.921Z,73940
2015-09-25T01:02:42.327Z,73937
2015-09-25T01:02:54.781Z,73937
2015-09-25T01:03:07.171Z,73935
2015-09-25T01:03:19.565Z,73935
2015-09-25T01:03:31.971Z,73940
2015-09-25T01:03:44.362Z,73938
2015-09-25T01:03:56.752Z,73934
2015-09-25T01:04:09.143Z,73935
2015-09-25T01:04:21.552Z,73948
2015-09-25T01:04:33.943Z,73933
2015-09-25T01:04:46.365Z,73945
2015-09-25T01:04:58.787Z,73938
2015-09-25T01:05:11.208Z,73942
2015-09-25T01:05:23.632Z,73940
2015-09-25T01:05:36.023Z,73943
2015-09-25T01:05:48.414Z,73945
2015-09-25T01:06:00.804Z,73939
2015-09-25T01:06:13.226Z,73937
2015-09-25T01:06:24.745Z,73935
2015-09-25T01:06:37.135Z,73930
2015-09-25T01:06:49.542Z,73945
2015-09-25T01:07:01.948Z,73930
2015-09-25T01:07:14.370Z,73943
2015-09-25T01:07:26.779Z,73936
2015-09-25T01:07:38.451Z,73932
2015-09-25T01:07:50.841Z,73930
2015-09-25T01:08:03.232Z,73936
2015-09-25T01:08:15.638Z,73938
2015-09-25T01:08:28.031Z,73938
2015-09-25T01:08:40.422Z,73934
2015-09-25T01:08:52.828Z,73936
2015-09-25T01:09:05.234Z,73940
2015-09-25T01:09:17.640Z,73933
2015-09-25T01:09:29.893Z,73932
2015-09-25T01:09:42.284Z,73937
2015-09-25T01:09:54.675Z,73937
2015-09-25T01:10:07.065Z,73937
2015-09-25T01:10:19.487Z,73937
2015-09-25T01:10:31.865Z,73933
2015-09-25T01:10:44.256Z,73936
2015-09-25T01:10:56.662Z,73938
2015-09-25T01:11:09.084Z,73935
2015-09-25T01:11:21.506Z,73931
2015-09-25T01:11:33.898Z,73931
2015-09-25T01:11:46.305Z,73933
2015-09-25T01:11:58.695Z,73931
2015-09-25T01:12:11.086Z,73934
2015-09-25T01:12:23.476Z,73933
2015-09-25T01:12:35.870Z,73932
2015-09-25T01:12:48.276Z,73932
2015-09-25T01:13:00.683Z,73929
2015-09-25T01:13:13.089Z,73931
2015-09-25T01:13:25.511Z,73932
2015-09-25T01:13:37.904Z,73931
2015-09-25T01:13:50.295Z,73929
2015-09-25T01:14:02.686Z,73938
2015-09-25T01:14:15.076Z,73930
2015-09-25T01:14:27.498Z,73931
2015-09-25T01:14:39.892Z,73931
2015-09-25T01:14:52.329Z,73937
2015-09-25T01:15:04.767Z,73931
2015-09-25T01:15:17.173Z,73931
2015-09-25T01:15:29.567Z,73933
2015-09-25T01:15:41.957Z,73930
2015-09-25T01:15:54.348Z,73936
2015-09-25T01:16:06.754Z,73936
2015-09-25T01:16:19.129Z,73932
2015-09-25T01:16:31.553Z,73935
2015-09-25T01:16:43.959Z,73929
2015-09-25T01:16:56.381Z,73938
2015-09-25T01:17:08.803Z,73935
2015-09-25T01:17:21.194Z,73933
2015-09-25T01:17:33.586Z,73935
2015-09-25T01:17:45.992Z,73931
2015-09-25T01:17:58.383Z,73938
2015-09-25T01:18:10.789Z,73943
2015-09-25T01:18:23.180Z,73929
2015-09-25T01:18:35.589Z,73942
2015-09-25T01:18:47.980Z,73935
2015-09-25T01:19:00.402Z,73935
2015-09-25T01:19:12.824Z,73934
2015-09-25T01:19:25.214Z,73936
2015-09-25T01:19:37.608Z,73931
2015-09-25T01:19:50.014Z,73938
2015-09-25T01:20:02.389Z,73932
2015-09-25T01:20:14.795Z,73942
2015-09-25T01:20:27.186Z,73933
2015-09-25T01:20:39.580Z,73936
2015-09-25T01:20:51.986Z,73931
2015-09-25T01:21:04.408Z,73941
2015-09-25T01:21:16.830Z,73929
2015-09-25T01:21:29.267Z,73935
2015-09-25T01:21:41.708Z,73937
2015-09-25T01:21:54.098Z,73936
2015-09-25T01:22:06.489Z,73934
2015-09-25T01:22:18.879Z,73934
2015-09-25T01:22:31.270Z,73935
2015-09-25T01:22:43.678Z,73935
2015-09-25T01:22:56.100Z,73937
2015-09-25T01:23:08.538Z,73932
2015-09-25T01:23:20.960Z,73934
2015-09-25T01:23:33.350Z,73933
2015-09-25T01:23:45.744Z,73932
2015-09-25T01:23:58.134Z,73934
2015-09-25T01:24:10.525Z,73931
2015-09-25T01:24:22.931Z,73930
2015-09-25T01:24:35.322Z,73932
2015-09-25T01:24:47.715Z,73935
2015-09-25T01:25:00.121Z,73935
2015-09-25T01:25:12.527Z,73932
2015-09-25T01:25:24.949Z,73931
2015-09-25T01:25:37.371Z,73935
2015-09-25T01:25:49.094Z,73929
2015-09-25T01:26:01.500Z,73931
2015-09-25T01:26:13.890Z,73941
2015-09-25T01:26:26.281Z,73934
2015-09-25T01:26:38.687Z,73936
2015-09-25T01:26:51.080Z,73934
2015-09-25T01:27:03.471Z,73934
2015-09-25T01:27:15.877Z,73933
2015-09-25T01:27:28.283Z,73932
2015-09-25T01:27:40.705Z,73936
2015-09-25T01:27:53.146Z,73931
2015-09-25T01:28:05.568Z,73934
2015-09-25T01:28:17.256Z,73933
2015-09-25T01:28:29.646Z,73933
2015-09-25T01:28:42.037Z,73930
2015-09-25T01:28:54.445Z,73933
2015-09-25T01:29:06.852Z,73931
2015-09-25T01:29:19.242Z,73936
2015-09-25T01:29:31.648Z,73932
2015-09-25T01:29:44.055Z,73932
2015-09-25T01:29:56.480Z,73930
2015-09-25T01:30:08.901Z,73935
2015-09-25T01:30:21.292Z,73933
2015-09-25T01:30:33.683Z,73932
2015-09-25T01:30:46.075Z,73929
2015-09-25T01:30:57.747Z,73931
2015-09-25T01:31:10.153Z,73930
2015-09-25T01:31:22.560Z,73931
2015-09-25T01:31:34.982Z,73932
2015-09-25T01:31:47.399Z,73933
2015-09-25T01:31:59.806Z,73930
2015-09-25T01:32:12.196Z,73931
2015-09-25T01:32:24.587Z,73930
2015-09-25T01:32:36.993Z,73931
2015-09-25T01:32:49.376Z,73932
2015-09-25T01:33:01.766Z,73931
2015-09-25T01:33:14.173Z,73929
2015-09-25T01:33:26.579Z,73935
2015-09-25T01:33:38.985Z,73929
2015-09-25T01:33:51.399Z,73930
2015-09-25T01:34:03.852Z,73930
2015-09-25T01:34:16.243Z,73929
2015-09-25T01:34:27.915Z,73927
2015-09-25T01:34:40.321Z,73928
2015-09-25T01:34:52.704Z,73929
2015-09-25T01:35:05.094Z,73922
2015-09-25T01:35:17.500Z,73924
2015-09-25T01:35:29.891Z,73928
2015-09-25T01:35:42.313Z,73929
2015-09-25T01:35:54.728Z,73930
2015-09-25T01:36:07.150Z,73923
2015-09-25T01:36:19.572Z,73929
2015-09-25T01:36:31.962Z,73929
2015-09-25T01:36:44.353Z,73927
2015-09-25T01:36:56.740Z,73925
2015-09-25T01:37:09.131Z,73925
2015-09-25T01:37:21.522Z,73922
2015-09-25T01:37:33.912Z,73925
2015-09-25T01:37:46.319Z,73927
2015-09-25T01:37:58.568Z,73924
2015-09-25T01:38:10.974Z,73926
2015-09-25T01:38:23.411Z,73924
2015-09-25T01:38:35.833Z,73924
2015-09-25T01:38:48.239Z,73929
2015-09-25T01:39:00.630Z,73925
2015-09-25T01:39:13.036Z,73928
2015-09-25T01:39:25.427Z,73924
2015-09-25T01:39:37.818Z,73926
2015-09-25T01:39:50.224Z,73922
2015-09-25T01:40:02.473Z,73931
2015-09-25T01:40:14.895Z,73929
2015-09-25T01:40:27.317Z,73928
2015-09-25T01:40:39.738Z,73924
2015-09-25T01:40:52.129Z,73928
2015-09-25T01:41:04.534Z,73929
2015-09-25T01:41:16.925Z,73924
2015-09-25T01:41:29.316Z,73929
2015-09-25T01:41:41.706Z,73926
2015-09-25T01:41:54.113Z,73923
2015-09-25T01:42:06.535Z,73927
2015-09-25T01:42:18.942Z,73925
2015-09-25T01:42:31.363Z,73924
2015-09-25T01:42:43.770Z,73928
2015-09-25T01:42:56.161Z,73928
2015-09-25T01:43:08.552Z,73923
2015-09-25T01:43:20.943Z,73926
2015-09-25T01:43:33.349Z,73925
2015-09-25T01:43:45.739Z,73929
2015-09-25T01:43:58.131Z,73925
2015-09-25T01:44:10.537Z,73928
2015-09-25T01:44:22.975Z,73927
2015-09-25T01:44:35.397Z,73928
2015-09-25T01:44:47.787Z,73922
2015-09-25T01:45:00.179Z,73924
2015-09-25T01:45:12.570Z,73922
2015-09-25T01:45:24.960Z,73926
2015-09-25T01:45:37.366Z,73921
2015-09-25T01:45:49.741Z,73925
2015-09-25T01:46:02.150Z,73926
2015-09-25T01:46:14.556Z,73920
2015-09-25T01:46:26.962Z,73924
2015-09-25T01:46:39.384Z,73924
2015-09-25T01:46:51.806Z,73923
2015-09-25T01:47:04.230Z,73927
2015-09-25T01:47:16.620Z,73923
2015-09-25T01:47:29.011Z,73921
2015-09-25T01:47:41.417Z,73919
2015-09-25T01:47:53.808Z,73921
2015-09-25T01:48:06.201Z,73924
2015-09-25T01:48:18.607Z,73921
2015-09-25T01:48:31.013Z,73920
2015-09-25T01:48:43.435Z,73919
2015-09-25T01:48:55.857Z,73930
2015-09-25T01:49:08.296Z,73923
2015-09-25T01:49:20.749Z,73922
2015-09-25T01:49:33.140Z,73923
2015-09-25T01:49:45.531Z,73922
2015-09-25T01:49:57.921Z,73921
2015-09-25T01:50:10.331Z,73919
2015-09-25T01:50:22.721Z,73918
2015-09-25T01:50:35.112Z,73922
2015-09-25T01:50:47.518Z,73919
2015-09-25T01:50:59.924Z,73922
2015-09-25T01:51:12.364Z,73922
2015-09-25T01:51:24.786Z,73920
2015-09-25T01:51:37.208Z,73921
2015-09-25T01:51:49.598Z,73919
2015-09-25T01:52:01.989Z,73920
2015-09-25T01:52:14.382Z,73918
2015-09-25T01:52:26.789Z,73920
2015-09-25T01:52:39.179Z,73918
2015-09-25T01:52:51.586Z,73918
2015-09-25T01:53:03.992Z,73920
2015-09-25T01:53:16.400Z,73916
2015-09-25T01:53:28.822Z,73923
2015-09-25T01:53:41.244Z,73915
2015-09-25T01:53:53.697Z,73923
2015-09-25T01:54:06.088Z,73924
2015-09-25T01:54:18.513Z,73924
2015-09-25T01:54:30.904Z,73921
2015-09-25T01:54:43.295Z,73917
2015-09-25T01:54:55.685Z,73919
2015-09-25T01:55:08.078Z,73918
2015-09-25T01:55:20.484Z,73913
2015-09-25T01:55:32.890Z,73917
2015-09-25T01:55:45.297Z,73922
2015-09-25T01:55:57.734Z,73918
2015-09-25T01:56:10.158Z,73917
2015-09-25T01:56:22.564Z,73917
2015-09-25T01:56:34.236Z,73925
2015-09-25T01:56:46.642Z,73915
2015-09-25T01:56:59.049Z,73918
2015-09-25T01:57:11.443Z,73920
2015-09-25T01:57:23.865Z,73917
2015-09-25T01:57:36.256Z,73917
2015-09-25T01:57:48.678Z,73913
2015-09-25T01:58:01.084Z,73920
2015-09-25T01:58:13.477Z,73923
2015-09-25T01:58:25.883Z,73920
2015-09-25T01:58:38.273Z,73915
2015-09-25T01:58:50.664Z,73920
2015-09-25T01:59:03.070Z,73919
2015-09-25T01:59:15.464Z,73917
2015-09-25T01:59:27.870Z,73920
2015-09-25T01:59:40.276Z,73916
2015-09-25T01:59:52.683Z,73917
2015-09-25T02:00:05.073Z,73923
2015-09-25T02:00:17.483Z,73919
2015-09-25T02:00:29.873Z,73924
2015-09-25T02:00:42.264Z,73917
2015-09-25T02:00:54.654Z,73917
2015-09-25T02:01:07.045Z,73919
2015-09-25T02:01:19.469Z,73916
2015-09-25T02:01:31.875Z,73920
2015-09-25T02:01:44.281Z,73917
2015-09-25T02:01:56.688Z,73918
2015-09-25T02:02:09.110Z,73912
2015-09-25T02:02:21.504Z,73922
2015-09-25T02:02:33.192Z,73917
2015-09-25T02:02:45.582Z,73911
2015-09-25T02:02:57.989Z,73923
2015-09-25T02:03:10.379Z,73914
2015-09-25T02:03:22.772Z,73918
2015-09-25T02:03:35.178Z,73913
2015-09-25T02:03:47.584Z,73913
2015-09-25T02:03:59.303Z,73914
2015-09-25T02:04:11.022Z,73917
2015-09-25T02:04:23.447Z,73916
2015-09-25T02:04:35.837Z,73912
2015-09-25T02:04:48.228Z,73915
2015-09-25T02:05:00.619Z,73913
2015-09-25T02:05:13.009Z,73917
2015-09-25T02:05:25.418Z,73916
2015-09-25T02:05:37.825Z,73918
2015-09-25T02:05:50.231Z,73921
2015-09-25T02:06:02.637Z,73915
2015-09-25T02:06:15.075Z,73915
2015-09-25T02:06:27.499Z,73919
2015-09-25T02:06:39.764Z,73918
2015-09-25T02:06:52.186Z,73922
2015-09-25T02:07:04.592Z,73923
2015-09-25T02:07:16.264Z,73919
2015-09-25T02:07:28.673Z,73920
2015-09-25T02:07:41.064Z,73918
2015-09-25T02:07:53.455Z,73915
2015-09-25T02:08:05.845Z,73920
2015-09-25T02:08:18.267Z,73916
2015-09-25T02:08:30.675Z,73917
2015-09-25T02:08:43.097Z,73922
2015-09-25T02:08:55.504Z,73912
2015-09-25T02:09:07.925Z,73918
2015-09-25T02:09:20.316Z,73924
2015-09-25T02:09:32.725Z,73926
2015-09-25T02:09:45.116Z,73922
2015-09-25T02:09:57.522Z,73916
2015-09-25T02:10:09.913Z,73920
2015-09-25T02:10:22.303Z,73921
2015-09-25T02:10:34.728Z,73921
2015-09-25T02:10:47.135Z,73926
2015-09-25T02:10:59.572Z,73920
2015-09-25T02:11:11.994Z,73918
2015-09-25T02:11:24.388Z,73926
2015-09-25T02:11:36.778Z,73918
2015-09-25T02:11:49.184Z,73923
2015-09-25T02:12:01.559Z,73924
2015-09-25T02:12:13.966Z,73922
2015-09-25T02:12:26.359Z,73922
2015-09-25T02:12:38.766Z,73921
2015-09-25T02:12:51.172Z,73917
2015-09-25T02:13:03.594Z,73916
2015-09-25T02:13:16.016Z,73919
2015-09-25T02:13:28.439Z,73924
2015-09-25T02:13:40.846Z,73920
2015-09-25T02:13:53.236Z,73919
2015-09-25T02:14:05.627Z,73918
2015-09-25T02:14:18.018Z,73911
2015-09-25T02:14:30.411Z,73921
2015-09-25T02:14:42.817Z,73918
2015-09-25T02:14:55.224Z,73918
2015-09-25T02:15:07.646Z,73920
2015-09-25T02:15:20.067Z,73924
2015-09-25T02:15:31.774Z,73915
2015-09-25T02:15:44.180Z,73922
2015-09-25T02:15:56.570Z,73915
2015-09-25T02:16:08.961Z,73917
2015-09-25T02:16:21.352Z,73920
2015-09-25T02:16:33.761Z,73920
2015-09-25T02:16:46.152Z,73920
2015-09-25T02:16:58.558Z,73914
2015-09-25T02:17:10.964Z,73919
2015-09-25T02:17:23.370Z,73915
2015-09-25T02:17:35.825Z,73916
2015-09-25T02:17:48.216Z,73916
2015-09-25T02:18:00.607Z,73916
2015-09-25T02:18:12.997Z,73912
2015-09-25T02:18:25.388Z,73912
2015-09-25T02:18:37.782Z,73916
2015-09-25T02:18:50.172Z,73911
2015-09-25T02:19:02.578Z,73912
2015-09-25T02:19:14.985Z,73913
2015-09-25T02:19:27.391Z,73911
2015-09-25T02:19:39.816Z,73910
2015-09-25T02:19:52.253Z,73914
2015-09-25T02:20:04.660Z,73913
2015-09-25T02:20:17.050Z,73910
2015-09-25T02:20:29.441Z,73916
2015-09-25T02:20:41.834Z,73913
2015-09-25T02:20:54.241Z,73912
2015-09-25T02:21:06.631Z,73911
2015-09-25T02:21:19.022Z,73913
2015-09-25T02:21:31.444Z,73912
2015-09-25T02:21:43.852Z,73907
2015-09-25T02:21:56.274Z,73909
2015-09-25T02:22:08.696Z,73910
2015-09-25T02:22:21.133Z,73910
2015-09-25T02:22:33.540Z,73910
2015-09-25T02:22:45.933Z,73910
2015-09-25T02:22:58.339Z,73907
2015-09-25T02:23:10.730Z,73907
2015-09-25T02:23:23.121Z,73912
2015-09-25T02:23:35.527Z,73908
2015-09-25T02:23:47.952Z,73910
2015-09-25T02:24:00.374Z,73907
2015-09-25T02:24:12.796Z,73910
2015-09-25T02:24:25.233Z,73907
2015-09-25T02:24:37.626Z,73905
2015-09-25T02:24:50.016Z,73907
2015-09-25T02:25:02.407Z,73909
2015-09-25T02:25:14.798Z,73903
2015-09-25T02:25:27.188Z,73909
2015-09-25T02:25:39.597Z,73905
2015-09-25T02:25:52.004Z,73906
2015-09-25T02:26:03.691Z,73906
2015-09-25T02:26:16.129Z,73905
2015-09-25T02:26:28.551Z,73906
2015-09-25T02:26:40.975Z,73904
2015-09-25T02:26:53.366Z,73903
2015-09-25T02:27:05.772Z,73904
2015-09-25T02:27:18.163Z,73903
2015-09-25T02:27:30.554Z,73906
2015-09-25T02:27:42.962Z,73907
2015-09-25T02:27:55.352Z,73902
2015-09-25T02:28:07.602Z,73901
2015-09-25T02:28:20.009Z,73902
2015-09-25T02:28:32.431Z,73902
2015-09-25T02:28:44.716Z,73903
2015-09-25T02:28:57.138Z,73903
2015-09-25T02:29:09.560Z,73902
2015-09-25T02:29:21.950Z,73903
2015-09-25T02:29:34.341Z,73910
2015-09-25T02:29:46.749Z,73904
2015-09-25T02:29:59.155Z,73897
2015-09-25T02:30:11.530Z,73905
2015-09-25T02:30:23.937Z,73902
2015-09-25T02:30:36.343Z,73905
2015-09-25T02:30:48.752Z,73898
2015-09-25T02:31:01.158Z,73905
2015-09-25T02:31:13.580Z,73903
2015-09-25T02:31:25.971Z,73901
2015-09-25T02:31:38.361Z,73905
2015-09-25T02:31:50.755Z,73900
2015-09-25T02:32:03.161Z,73901
2015-09-25T02:32:15.583Z,73907
2015-09-25T02:32:28.005Z,73906
2015-09-25T02:32:40.427Z,73903
2015-09-25T02:32:52.820Z,73909
2015-09-25T02:33:05.210Z,73899
2015-09-25T02:33:17.601Z,73901
2015-09-25T02:33:29.288Z,73901
2015-09-25T02:33:41.695Z,73907
2015-09-25T02:33:54.135Z,73907
2015-09-25T02:34:06.541Z,73898
2015-09-25T02:34:18.948Z,73904
2015-09-25T02:34:31.385Z,73903
2015-09-25T02:34:43.791Z,73898
2015-09-25T02:34:56.184Z,73906
2015-09-25T02:35:08.575Z,73903
2015-09-25T02:35:20.965Z,73903
2015-09-25T02:35:33.371Z,73901
2015-09-25T02:35:45.765Z,73909
2015-09-25T02:35:58.156Z,73904
2015-09-25T02:36:10.562Z,73901
2015-09-25T02:36:22.968Z,73900
2015-09-25T02:36:35.390Z,73908
2015-09-25T02:36:47.799Z,73908
2015-09-25T02:37:00.190Z,73900
2015-09-25T02:37:12.581Z,73905
2015-09-25T02:37:24.971Z,73897
2015-09-25T02:37:36.659Z,73899
2015-09-25T02:37:49.052Z,73901
2015-09-25T02:38:01.443Z,73902
2015-09-25T02:38:13.849Z,73904
2015-09-25T02:38:26.287Z,73901
2015-09-25T02:38:38.693Z,73897
2015-09-25T02:38:51.118Z,73903
2015-09-25T02:39:03.524Z,73900
2015-09-25T02:39:15.915Z,73896
2015-09-25T02:39:28.305Z,73900